createdAt,value
2019-02-23T00:00:15.181Z,41.50
2019-02-23T00:02:43.833Z,39.47
2019-02-23T00:05:12.529Z,46.43
2019-02-23T00:07:41.385Z,46.07
2019-02-23T00:10:10.111Z,42.75
2019-02-23T00:12:38.861Z,42.80
2019-02-23T00:15:08.448Z,50.57
2019-02-23T00:17:37.206Z,41.47
2019-02-23T00:20:08.420Z,42.87
2019-02-23T00:22:37.118Z,43.57
2019-02-23T00:25:06.051Z,46.03
2019-02-23T00:27:34.776Z,45.33
2019-02-23T00:30:03.510Z,48.23
2019-02-23T00:32:32.326Z,41.85
2019-02-23T00:35:00.973Z,50.43
2019-02-23T00:37:29.747Z,55.80
2019-02-23T00:39:58.388Z,42.97
2019-02-23T00:42:27.117Z,51.53
2019-02-23T00:44:55.766Z,40.50
2019-02-23T00:47:24.406Z,48.03
2019-02-23T00:49:53.591Z,58.77
2019-02-23T00:52:22.254Z,46.90
2019-02-23T00:54:50.954Z,41.30
2019-02-23T00:57:19.739Z,50.67
2019-02-23T00:59:48.480Z,48.37
2019-02-23T01:02:17.191Z,48.00
2019-02-23T01:04:45.967Z,55.30
2019-02-23T01:07:14.702Z,50.40
2019-02-23T01:09:43.420Z,47.27
2019-02-23T01:12:12.222Z,54.57
2019-02-23T01:14:40.932Z,50.88
2019-02-23T01:17:09.657Z,53.75
2019-02-23T01:19:47.410Z,48.70
2019-02-23T01:22:08.880Z,45.67
2019-02-23T01:24:37.438Z,51.90
2019-02-23T01:27:06.177Z,51.87
2019-02-23T01:29:34.974Z,58.03
2019-02-23T01:32:03.708Z,49.93
2019-02-23T01:34:32.541Z,45.27
2019-02-23T01:37:01.265Z,52.30
2019-02-23T01:39:29.978Z,53.42
2019-02-23T01:41:58.769Z,49.00
2019-02-23T01:44:27.612Z,57.03
2019-02-23T01:46:56.238Z,54.20
2019-02-23T01:49:24.949Z,54.25
2019-02-23T01:51:53.795Z,48.63
2019-02-23T01:54:22.529Z,46.73
2019-02-23T01:56:51.276Z,55.60
2019-02-23T01:59:19.999Z,51.70
2019-02-23T02:01:48.729Z,51.00
2019-02-23T02:04:17.409Z,45.83
2019-02-23T02:06:46.216Z,49.10
2019-02-23T02:09:15.021Z,49.40
2019-02-23T02:11:43.708Z,53.30
2019-02-23T02:14:12.443Z,51.67
2019-02-23T02:16:42.024Z,53.10
2019-02-23T02:19:10.795Z,49.33
2019-02-23T02:21:39.545Z,43.20
2019-02-23T02:24:08.285Z,50.97
2019-02-23T02:26:37.044Z,53.80
2019-02-23T02:29:05.798Z,48.53
2019-02-23T02:31:34.493Z,48.67
2019-02-23T02:34:08.067Z,52.87
2019-02-23T02:36:36.780Z,46.63
2019-02-23T02:39:11.163Z,46.10
2019-02-23T02:41:39.821Z,45.70
2019-02-23T02:44:08.437Z,55.47
2019-02-23T02:46:37.153Z,54.65
2019-02-23T02:49:05.892Z,64.10
2019-02-23T02:51:34.604Z,51.80
2019-02-23T02:54:03.363Z,55.67
2019-02-23T02:56:32.122Z,46.80
2019-02-23T02:59:00.881Z,54.05
2019-02-23T03:01:29.628Z,59.73
2019-02-23T03:03:58.330Z,50.40
2019-02-23T03:06:27.071Z,50.65
2019-02-23T03:08:55.918Z,48.73
2019-02-23T03:11:24.833Z,54.03
2019-02-23T03:13:53.526Z,54.63
2019-02-23T03:16:22.284Z,43.93
2019-02-23T03:18:51.042Z,50.83
2019-02-23T03:21:19.762Z,48.33
2019-02-23T03:23:48.448Z,50.50
2019-02-23T03:26:17.178Z,58.27
2019-02-23T03:28:45.888Z,53.23
2019-02-23T03:31:14.599Z,60.85
2019-02-23T03:33:43.207Z,53.57
2019-02-23T03:36:11.956Z,56.60
2019-02-23T03:38:40.760Z,56.47
2019-02-23T03:41:09.623Z,57.90
2019-02-23T03:43:38.389Z,54.80
2019-02-23T03:46:07.145Z,54.40
2019-02-23T03:48:35.869Z,60.53
2019-02-23T03:51:05.178Z,64.32
2019-02-23T03:53:33.942Z,65.80
2019-02-23T03:56:02.680Z,62.20
2019-02-23T03:58:31.397Z,53.37
2019-02-23T04:01:00.182Z,54.67
2019-02-23T04:03:29.067Z,52.83
2019-02-23T04:05:57.769Z,49.87
2019-02-23T04:08:26.403Z,53.47
2019-02-23T04:10:55.136Z,53.50
2019-02-23T04:13:23.767Z,51.50
2019-02-23T04:15:52.444Z,62.17
2019-02-23T04:18:21.172Z,70.72
2019-02-23T04:21:01.366Z,54.07
2019-02-23T04:23:20.388Z,59.35
2019-02-23T04:25:49.096Z,53.97
2019-02-23T04:28:17.859Z,56.57
2019-02-23T04:30:46.578Z,75.35
2019-02-23T04:33:15.205Z,65.20
2019-02-23T04:35:46.496Z,66.00
2019-02-23T04:38:14.341Z,42.40
2019-02-23T04:40:43.050Z,56.17
2019-02-23T04:43:11.710Z,53.10
2019-02-23T04:45:40.425Z,47.93
2019-02-23T04:48:09.133Z,50.53
2019-02-23T04:50:37.819Z,54.23
2019-02-23T04:53:06.532Z,75.32
2019-02-23T04:55:36.729Z,132.20
2019-02-23T04:58:05.865Z,94.97
2019-02-23T05:00:37.403Z,65.85
2019-02-23T05:03:07.109Z,279.50
2019-02-23T05:05:35.848Z,136.05
2019-02-23T05:08:05.188Z,153.38
2019-02-23T05:10:33.935Z,155.85
2019-02-23T05:13:02.569Z,71.63
2019-02-23T05:15:31.295Z,66.50
2019-02-23T05:18:00.008Z,69.83
2019-02-23T05:20:28.745Z,61.77
2019-02-23T05:22:57.606Z,57.73
2019-02-23T05:25:26.349Z,46.67
2019-02-23T05:27:55.047Z,57.20
2019-02-23T05:30:23.849Z,64.27
2019-02-23T05:32:52.541Z,54.27
2019-02-23T05:35:21.218Z,57.33
2019-02-23T05:37:49.998Z,59.97
2019-02-23T05:40:18.683Z,73.47
2019-02-23T05:42:47.743Z,47.07
2019-02-23T05:45:16.678Z,64.45
2019-02-23T05:47:45.349Z,58.90
2019-02-23T05:50:14.174Z,56.68
2019-02-23T05:52:43.031Z,56.28
2019-02-23T05:55:11.686Z,63.13
2019-02-23T05:57:40.322Z,54.50
2019-02-23T06:00:14.765Z,55.80
2019-02-23T06:02:45.277Z,57.33
2019-02-23T06:05:14.146Z,58.35
2019-02-23T06:07:44.017Z,56.90
2019-02-23T06:10:12.770Z,57.33
2019-02-23T06:12:41.591Z,53.00
2019-02-23T06:15:12.483Z,60.23
2019-02-23T06:17:41.259Z,62.00
2019-02-23T06:20:10.934Z,51.03
2019-02-23T06:22:39.732Z,54.13
2019-02-23T06:25:09.878Z,78.43
2019-02-23T06:27:38.610Z,102.53
2019-02-23T06:30:10.388Z,95.67
2019-02-23T06:32:39.112Z,82.02
2019-02-23T06:35:10.223Z,77.78
2019-02-23T06:37:38.964Z,71.82
2019-02-23T06:40:12.215Z,53.83
2019-02-23T06:42:41.019Z,57.33
2019-02-23T06:45:12.205Z,55.77
2019-02-23T06:47:41.007Z,50.10
2019-02-23T06:50:09.838Z,45.67
2019-02-23T06:52:38.584Z,50.43
2019-02-23T06:55:08.123Z,58.73
2019-02-23T06:57:37.994Z,48.53
2019-02-23T07:00:09.753Z,51.37
2019-02-23T07:02:38.558Z,47.97
2019-02-23T07:05:07.599Z,56.00
2019-02-23T07:07:36.357Z,49.63
2019-02-23T07:10:08.593Z,51.50
2019-02-23T07:12:37.487Z,58.30
2019-02-23T07:15:08.327Z,51.13
2019-02-23T07:17:37.028Z,47.77
2019-02-23T07:20:08.382Z,54.03
2019-02-23T07:22:37.167Z,50.03
2019-02-23T07:25:08.182Z,39.00
2019-02-23T07:27:36.928Z,42.90
2019-02-23T07:30:08.545Z,34.90
2019-02-23T07:32:37.194Z,37.30
2019-02-23T07:35:07.513Z,35.20
2019-02-23T07:37:36.256Z,35.73
2019-02-23T07:40:08.320Z,34.90
2019-02-23T07:42:37.089Z,34.27
2019-02-23T07:45:08.704Z,35.50
2019-02-23T07:47:37.575Z,32.20
2019-02-23T07:50:11.704Z,34.25
2019-02-23T07:52:40.398Z,33.60
2019-02-23T07:55:09.407Z,30.02
2019-02-23T07:57:38.100Z,31.00
2019-02-23T08:00:10.705Z,34.00
2019-02-23T08:02:39.749Z,32.47
2019-02-23T08:05:10.712Z,32.53
2019-02-23T08:07:40.080Z,27.53
2019-02-23T08:10:11.847Z,31.60
2019-02-23T08:12:40.680Z,32.93
2019-02-23T08:15:11.782Z,31.90
2019-02-23T08:17:40.570Z,26.80
2019-02-23T08:20:16.560Z,30.10
2019-02-23T08:22:45.249Z,32.53
2019-02-23T08:25:17.188Z,31.45
2019-02-23T08:27:46.651Z,32.80
2019-02-23T08:30:19.286Z,21.83
2019-02-23T08:32:49.186Z,24.90
2019-02-23T08:35:24.680Z,27.45
2019-02-23T08:38:03.319Z,28.80
2019-02-23T08:40:34.227Z,22.50
2019-02-23T08:43:03.217Z,17.12
2019-02-23T08:45:32.213Z,25.60
2019-02-23T08:48:01.039Z,25.40
2019-02-23T08:50:29.869Z,28.30
2019-02-23T08:53:01.266Z,24.97
2019-02-23T08:55:31.103Z,28.27
2019-02-23T08:58:00.668Z,27.43
2019-02-23T09:00:30.478Z,29.13
2019-02-23T09:02:59.252Z,24.00
2019-02-23T09:05:28.122Z,28.70
2019-02-23T09:07:56.862Z,27.57
2019-02-23T09:10:25.790Z,27.03
2019-02-23T09:12:54.816Z,31.50
2019-02-23T09:15:24.277Z,22.37
2019-02-23T09:17:53.297Z,30.63
2019-02-23T09:20:29.296Z,24.07
2019-02-23T09:23:00.158Z,23.53
2019-02-23T09:25:26.073Z,22.97
2019-02-23T09:27:57.578Z,24.70
2019-02-23T09:30:26.819Z,23.73
2019-02-23T09:33:07.442Z,21.83
2019-02-23T09:35:39.579Z,24.02
2019-02-23T09:38:08.319Z,17.47
2019-02-23T09:40:39.649Z,22.53
2019-02-23T09:43:13.421Z,28.03
2019-02-23T09:45:44.151Z,24.40
2019-02-23T09:48:12.926Z,21.10
2019-02-23T09:50:41.743Z,24.83
2019-02-23T09:53:11.574Z,23.30
2019-02-23T09:55:40.872Z,26.57
2019-02-23T09:58:09.615Z,20.90
2019-02-23T10:00:38.536Z,24.92
2019-02-23T10:03:07.268Z,24.37
2019-02-23T10:05:38.138Z,23.83
2019-02-23T10:08:06.512Z,23.17
2019-02-23T10:10:36.912Z,23.23
2019-02-23T10:13:11.235Z,21.20
2019-02-23T10:15:41.110Z,26.20
2019-02-23T10:18:13.742Z,21.68
2019-02-23T10:20:44.006Z,20.43
2019-02-23T10:23:21.571Z,22.55
2019-02-23T10:25:45.450Z,28.90
2019-02-23T10:28:14.532Z,21.40
2019-02-23T10:30:48.082Z,22.50
2019-02-23T10:33:47.687Z,22.07
2019-02-23T10:36:35.658Z,23.20
2019-02-23T10:39:25.067Z,24.93
2019-02-23T10:41:55.408Z,24.80
2019-02-23T10:44:34.855Z,18.40
2019-02-23T10:47:12.756Z,24.67
2019-02-23T10:49:41.554Z,19.10
2019-02-23T10:52:11.512Z,21.70
2019-02-23T10:54:40.536Z,23.73
2019-02-23T10:57:10.375Z,19.87
2019-02-23T10:59:39.243Z,20.03
2019-02-23T11:02:08.865Z,20.70
2019-02-23T11:04:38.109Z,21.33
2019-02-23T11:07:06.787Z,21.27
2019-02-23T11:09:37.252Z,18.30
2019-02-23T11:12:05.978Z,18.00
2019-02-23T11:14:34.707Z,17.40
2019-02-23T11:17:06.534Z,20.33
2019-02-23T11:19:37.547Z,23.90
2019-02-23T11:22:06.596Z,19.57
2019-02-23T11:24:35.470Z,18.27
2019-02-23T11:27:05.371Z,21.07
2019-02-23T11:29:34.302Z,20.57
2019-02-23T11:32:03.066Z,17.40
2019-02-23T11:34:32.020Z,20.10
2019-02-23T11:37:01.156Z,19.53
2019-02-23T11:39:29.864Z,23.50
2019-02-23T11:41:58.587Z,15.80
2019-02-23T11:44:27.481Z,20.47
2019-02-23T11:47:00.652Z,18.07
2019-02-23T11:49:29.338Z,19.10
2019-02-23T11:51:58.096Z,23.20
2019-02-23T11:54:26.902Z,23.17
2019-02-23T11:56:55.578Z,22.33
2019-02-23T11:59:24.343Z,21.13
2019-02-23T12:01:53.105Z,23.70
2019-02-23T12:04:21.921Z,22.70
2019-02-23T12:06:50.655Z,22.27
2019-02-23T12:09:19.307Z,20.30
2019-02-23T12:11:48.082Z,22.53
2019-02-23T12:14:16.810Z,22.27
2019-02-23T12:16:45.454Z,24.27
2019-02-23T12:19:14.196Z,25.20
2019-02-23T12:21:42.886Z,20.77
2019-02-23T12:24:11.566Z,20.95
2019-02-23T12:26:40.269Z,19.10
2019-02-23T12:29:08.961Z,17.10
2019-02-23T12:31:37.858Z,24.47
2019-02-23T12:34:06.530Z,17.57
2019-02-23T12:36:35.173Z,17.53
2019-02-23T12:39:05.683Z,19.40
2019-02-23T12:41:34.450Z,18.90
2019-02-23T12:44:03.211Z,20.62
2019-02-23T12:46:31.919Z,18.50
2019-02-23T12:49:00.544Z,18.10
2019-02-23T12:51:29.303Z,14.93
2019-02-23T12:53:58.050Z,16.93
2019-02-23T12:56:26.880Z,23.20
2019-02-23T12:58:55.718Z,18.57
2019-02-23T13:01:24.605Z,19.77
2019-02-23T13:03:53.346Z,17.10
2019-02-23T13:06:21.994Z,20.25
2019-02-23T13:09:13.162Z,19.07
2019-02-23T13:11:44.305Z,17.47
2019-02-23T13:14:38.481Z,21.17
2019-02-23T13:17:21.859Z,15.17
2019-02-23T13:20:14.469Z,18.60
2019-02-23T13:22:54.809Z,14.70
2019-02-23T13:25:32.282Z,17.03
2019-02-23T13:28:20.453Z,17.77
2019-02-23T13:31:00.938Z,15.63
2019-02-23T13:33:43.029Z,19.63
2019-02-23T13:36:25.654Z,15.58
2019-02-23T13:39:07.093Z,15.73
2019-02-23T13:41:43.355Z,16.40
2019-02-23T13:44:19.428Z,16.87
2019-02-23T13:47:04.693Z,18.23
2019-02-23T13:50:11.124Z,15.43
2019-02-23T13:53:01.402Z,18.10
2019-02-23T13:55:52.935Z,14.63
2019-02-23T13:58:30.531Z,17.67
2019-02-23T14:01:02.258Z,18.10
2019-02-23T14:03:36.591Z,19.13
2019-02-23T14:06:20.144Z,19.73
2019-02-23T14:09:09.029Z,17.50
2019-02-23T14:12:03.458Z,17.30
2019-02-23T14:14:40.983Z,24.00
2019-02-23T14:17:15.343Z,20.72
2019-02-23T14:20:05.233Z,16.60
2019-02-23T14:22:48.750Z,17.73
2019-02-23T14:25:35.438Z,16.70
2019-02-23T14:28:18.891Z,16.47
2019-02-23T14:30:56.238Z,17.60
2019-02-23T14:33:27.847Z,19.07
2019-02-23T14:36:11.628Z,16.47
2019-02-23T14:39:05.590Z,17.90
2019-02-23T14:41:43.043Z,18.87
2019-02-23T14:44:17.282Z,15.45
2019-02-23T14:46:54.688Z,18.23
2019-02-23T14:49:32.007Z,28.83
2019-02-23T14:52:18.677Z,19.80
2019-02-23T14:55:14.229Z,13.23
2019-02-23T14:57:57.640Z,15.07
2019-02-23T15:00:35.189Z,15.77
2019-02-23T15:03:13.730Z,16.30
2019-02-23T15:05:57.365Z,19.03
2019-02-23T15:08:47.010Z,16.50
2019-02-23T15:11:33.569Z,16.27
2019-02-23T15:14:08.004Z,18.32
2019-02-23T15:16:59.048Z,15.00
2019-02-23T15:19:30.785Z,16.20
2019-02-23T15:22:35.390Z,15.40
2019-02-23T15:25:13.142Z,14.90
2019-02-23T15:27:44.293Z,16.30
2019-02-23T15:30:21.559Z,15.53
2019-02-23T15:33:13.953Z,19.27
2019-02-23T15:35:52.428Z,12.07
2019-02-23T15:38:33.480Z,15.95
2019-02-23T15:41:05.163Z,18.60
2019-02-23T15:43:56.366Z,20.50
2019-02-23T15:46:39.266Z,22.82
2019-02-23T15:49:31.789Z,15.47
2019-02-23T15:52:02.274Z,17.50
2019-02-23T15:54:30.954Z,22.57
2019-02-23T15:57:00.182Z,26.40
2019-02-23T15:59:28.967Z,17.07
2019-02-23T16:01:57.615Z,17.23
2019-02-23T16:04:26.459Z,20.77
2019-02-23T16:06:55.044Z,20.33
2019-02-23T16:09:23.800Z,16.63
2019-02-23T16:11:52.416Z,18.03
2019-02-23T16:14:21.100Z,18.07
2019-02-23T16:16:49.937Z,24.63
2019-02-23T16:19:19.171Z,20.70
2019-02-23T16:21:47.958Z,22.67
2019-02-23T16:24:16.816Z,20.00
2019-02-23T16:26:51.066Z,25.03
2019-02-23T16:29:19.142Z,20.48
2019-02-23T16:31:48.087Z,21.13
2019-02-23T16:34:17.366Z,18.50
2019-02-23T16:36:46.233Z,22.40
2019-02-23T16:39:14.960Z,29.07
2019-02-23T16:41:43.946Z,22.07
2019-02-23T16:44:12.599Z,22.77
2019-02-23T16:46:41.540Z,22.60
2019-02-23T16:49:12.947Z,25.77
2019-02-23T16:51:41.709Z,22.00
2019-02-23T16:54:10.470Z,25.52
2019-02-23T16:56:39.275Z,23.47
2019-02-23T16:59:07.918Z,20.10
2019-02-23T17:01:36.688Z,27.27
2019-02-23T17:04:05.419Z,24.40
2019-02-23T17:06:34.088Z,23.50
2019-02-23T17:09:02.897Z,24.47
2019-02-23T17:11:34.385Z,23.30
2019-02-23T17:14:03.298Z,24.13
2019-02-23T17:16:32.593Z,29.25
2019-02-23T17:19:01.653Z,27.70
2019-02-23T17:21:30.620Z,23.37
2019-02-23T17:23:59.598Z,25.23
2019-02-23T17:26:29.000Z,26.68
2019-02-23T17:28:57.782Z,28.25
2019-02-23T17:31:26.861Z,23.70
2019-02-23T17:33:55.578Z,25.30
2019-02-23T17:36:24.271Z,23.07
2019-02-23T17:38:52.999Z,27.13
2019-02-23T17:41:21.786Z,31.17
2019-02-23T17:43:50.493Z,27.57
2019-02-23T17:46:19.250Z,26.10
2019-02-23T17:48:47.976Z,26.73
2019-02-23T17:51:16.643Z,30.57
2019-02-23T17:53:45.202Z,27.57
2019-02-23T17:56:14.735Z,25.62
2019-02-23T17:58:43.463Z,28.80
2019-02-23T18:01:12.223Z,26.17
2019-02-23T18:03:44.245Z,28.43
2019-02-23T18:06:12.872Z,28.40
2019-02-23T18:08:41.628Z,29.27
2019-02-23T18:11:10.715Z,26.63
2019-02-23T18:13:39.591Z,30.90
2019-02-23T18:16:08.410Z,27.03
2019-02-23T18:18:37.162Z,27.13
2019-02-23T18:21:06.288Z,25.37
2019-02-23T18:23:35.083Z,27.33
2019-02-23T18:26:03.844Z,26.25
2019-02-23T18:28:33.459Z,22.23
2019-02-23T18:31:02.490Z,28.63
2019-02-23T18:33:31.147Z,23.67
2019-02-23T18:36:03.398Z,20.67
2019-02-23T18:38:32.415Z,24.00
2019-02-23T18:41:01.129Z,27.42
2019-02-23T18:43:34.863Z,23.13
2019-02-23T18:46:03.945Z,22.00
2019-02-23T18:48:32.726Z,23.73
2019-02-23T18:51:04.671Z,26.47
2019-02-23T18:53:34.774Z,27.87
2019-02-23T18:56:06.036Z,25.77
2019-02-23T18:58:34.669Z,21.70
2019-02-23T19:01:03.458Z,25.07
2019-02-23T19:03:32.086Z,26.37
2019-02-23T19:06:09.632Z,28.57
2019-02-23T19:08:39.050Z,27.73
2019-02-23T19:11:07.803Z,29.83
2019-02-23T19:13:36.740Z,29.47
2019-02-23T19:16:05.679Z,29.47
2019-02-23T19:18:34.700Z,27.13
2019-02-23T19:21:03.452Z,29.70
2019-02-23T19:23:32.086Z,29.65
2019-02-23T19:26:01.234Z,27.03
2019-02-23T19:28:29.872Z,24.70
2019-02-23T19:30:58.556Z,23.00
2019-02-23T19:33:27.318Z,26.17
2019-02-23T19:35:56.029Z,25.40
2019-02-23T19:38:24.602Z,28.07
2019-02-23T19:40:53.362Z,30.70
2019-02-23T19:43:21.951Z,29.52
2019-02-23T19:45:50.601Z,31.50
2019-02-23T19:48:20.409Z,29.27
2019-02-23T19:50:52.599Z,31.13
2019-02-23T19:53:22.097Z,32.58
2019-02-23T19:55:51.663Z,31.85
2019-02-23T19:58:21.228Z,29.15
2019-02-23T20:00:50.849Z,31.90
2019-02-23T20:03:20.530Z,33.00
2019-02-23T20:05:50.126Z,33.05
2019-02-23T20:08:19.776Z,28.95
2019-02-23T20:10:49.722Z,33.20
2019-02-23T20:13:19.327Z,30.50
2019-02-23T20:15:48.128Z,34.20
2019-02-23T20:18:16.848Z,25.90
2019-02-23T20:20:45.884Z,33.08
2019-02-23T20:23:14.632Z,27.60
2019-02-23T20:25:43.338Z,31.07
2019-02-23T20:28:12.146Z,29.07
2019-02-23T20:30:40.897Z,24.97
2019-02-23T20:33:09.641Z,29.00
2019-02-23T20:35:38.451Z,28.37
2019-02-23T20:38:07.308Z,34.17
2019-02-23T20:40:37.310Z,32.50
2019-02-23T20:43:05.943Z,32.65
2019-02-23T20:45:34.579Z,33.50
2019-02-23T20:48:03.455Z,31.40
2019-02-23T20:50:32.201Z,32.00
2019-02-23T20:53:00.843Z,33.93
2019-02-23T20:55:29.448Z,29.67
2019-02-23T20:57:58.939Z,29.87
2019-02-23T21:00:27.706Z,29.47
2019-02-23T21:02:56.381Z,29.97
2019-02-23T21:05:25.184Z,27.37
2019-02-23T21:07:55.079Z,34.00
2019-02-23T21:10:24.735Z,31.80
2019-02-23T21:12:53.551Z,32.43
2019-02-23T21:15:22.265Z,31.87
2019-02-23T21:17:51.004Z,29.45
2019-02-23T21:20:19.633Z,33.18
2019-02-23T21:22:48.580Z,35.68
2019-02-23T21:25:17.265Z,35.17
2019-02-23T21:27:46.011Z,32.30
2019-02-23T21:30:14.736Z,33.57
2019-02-23T21:32:43.340Z,34.50
2019-02-23T21:35:12.142Z,31.00
2019-02-23T21:37:46.474Z,30.50
2019-02-23T21:40:15.645Z,34.90
2019-02-23T21:42:44.378Z,36.17
2019-02-23T21:45:13.353Z,31.27
2019-02-23T21:47:42.101Z,27.42
2019-02-23T21:50:11.253Z,26.53
2019-02-23T21:52:40.006Z,31.97
2019-02-23T21:55:10.824Z,33.63
2019-02-23T21:57:40.726Z,32.13
2019-02-23T22:00:14.343Z,31.67
2019-02-23T22:02:43.925Z,38.43
2019-02-23T22:05:13.113Z,30.93
2019-02-23T22:07:41.922Z,28.57
2019-02-23T22:10:10.935Z,31.27
2019-02-23T22:12:39.766Z,34.50
2019-02-23T22:15:10.836Z,23.17
2019-02-23T22:17:39.732Z,28.70
2019-02-23T22:20:09.378Z,28.40
2019-02-23T22:22:38.457Z,30.67
2019-02-23T22:25:07.268Z,33.17
2019-02-23T22:27:35.915Z,29.70
2019-02-23T22:30:07.981Z,31.45
2019-02-23T22:32:37.366Z,33.28
2019-02-23T22:35:06.509Z,28.13
2019-02-23T22:37:35.266Z,30.13
2019-02-23T22:40:07.702Z,26.90
2019-02-23T22:42:36.534Z,26.87
2019-02-23T22:45:07.394Z,32.10
2019-02-23T22:47:36.186Z,32.87
2019-02-23T22:50:07.765Z,25.88
2019-02-23T22:52:36.664Z,32.57
2019-02-23T22:55:07.723Z,32.87
2019-02-23T22:57:40.848Z,32.73
2019-02-23T23:00:32.530Z,30.13
2019-02-23T23:03:01.213Z,21.40
2019-02-23T23:05:30.349Z,26.53
2019-02-23T23:07:59.461Z,28.07
2019-02-23T23:10:28.225Z,28.80
2019-02-23T23:12:57.801Z,28.80
2019-02-23T23:15:27.210Z,27.07
2019-02-23T23:17:56.106Z,27.90
2019-02-23T23:20:24.839Z,29.13
2019-02-23T23:22:53.634Z,34.83
2019-02-23T23:25:22.437Z,32.73
2019-02-23T23:27:51.157Z,30.30
2019-02-23T23:30:19.970Z,35.90
2019-02-23T23:32:48.918Z,29.70
2019-02-23T23:35:18.447Z,33.00
2019-02-23T23:37:47.150Z,28.52
2019-02-23T23:40:15.744Z,32.05
2019-02-23T23:42:44.402Z,40.35
2019-02-23T23:45:13.699Z,39.17
2019-02-23T23:47:42.764Z,36.53
2019-02-23T23:50:11.670Z,32.97
2019-02-23T23:52:40.379Z,32.00
2019-02-23T23:55:09.392Z,25.57
2019-02-23T23:57:38.132Z,32.53
